sensor_id;sensor_type;location;lat;lon;timestamp;P1;durP1;ratioP1;P2;durP2;ratioP2
60306;SDS011;46155;52.364;6.580;2023-05-21T03:01:35;12.43;;;11.07;;
60306;SDS011;46155;52.364;6.580;2023-05-21T03:04:00;12.73;;;11.63;;
60306;SDS011;46155;52.364;6.580;2023-05-21T03:06:26;12.23;;;11.17;;
60306;SDS011;46155;52.364;6.580;2023-05-21T03:08:51;11.77;;;10.73;;
60306;SDS011;46155;52.364;6.580;2023-05-21T03:11:17;12.60;;;11.47;;
60306;SDS011;46155;52.364;6.580;2023-05-21T03:13:43;11.93;;;10.93;;
60306;SDS011;46155;52.364;6.580;2023-05-21T03:16:08;13.20;;;11.87;;
60306;SDS011;46155;52.364;6.580;2023-05-21T03:18:33;13.10;;;12.00;;
60306;SDS011;46155;52.364;6.580;2023-05-21T03:20:59;14.47;;;13.23;;
60306;SDS011;46155;52.364;6.580;2023-05-21T03:23:26;13.43;;;12.10;;
60306;SDS011;46155;52.364;6.580;2023-05-21T03:25:51;13.67;;;12.67;;
60306;SDS011;46155;52.364;6.580;2023-05-21T03:28:16;14.00;;;12.90;;
60306;SDS011;46155;52.364;6.580;2023-05-21T03:30:42;15.33;;;14.13;;
60306;SDS011;46155;52.364;6.580;2023-05-21T03:33:10;16.33;;;13.50;;
60306;SDS011;46155;52.364;6.580;2023-05-21T03:35:37;17.20;;;15.40;;
60306;SDS011;46155;52.364;6.580;2023-05-21T03:38:03;15.27;;;14.07;;
60306;SDS011;46155;52.364;6.580;2023-05-21T03:40:28;14.03;;;12.83;;
60306;SDS011;46155;52.364;6.580;2023-05-21T03:42:54;15.00;;;13.50;;
60306;SDS011;46155;52.364;6.580;2023-05-21T03:45:19;15.87;;;13.00;;
60306;SDS011;46155;52.364;6.580;2023-05-21T03:47:45;13.43;;;12.13;;
60306;SDS011;46155;52.364;6.580;2023-05-21T03:50:10;13.83;;;11.10;;
60306;SDS011;46155;52.364;6.580;2023-05-21T03:52:36;12.73;;;11.63;;
60306;SDS011;46155;52.364;6.580;2023-05-21T03:55:01;14.57;;;13.27;;
60306;SDS011;46155;52.364;6.580;2023-05-21T03:57:27;13.27;;;12.17;;
60306;SDS011;46155;52.364;6.580;2023-05-21T03:59:52;12.07;;;11.00;;
60306;SDS011;46155;52.364;6.580;2023-05-21T04:02:17;13.93;;;11.77;;
60306;SDS011;46155;52.364;6.580;2023-05-21T04:04:43;19.57;;;12.07;;
60306;SDS011;46155;52.364;6.580;2023-05-21T04:07:09;12.77;;;11.43;;
60306;SDS011;46155;52.364;6.580;2023-05-21T04:09:39;11.63;;;10.63;;
60306;SDS011;46155;52.364;6.580;2023-05-21T04:12:05;12.30;;;11.10;;
60306;SDS011;46155;52.364;6.580;2023-05-21T04:14:31;14.20;;;12.80;;
60306;SDS011;46155;52.364;6.580;2023-05-21T04:16:58;13.67;;;12.37;;
60306;SDS011;46155;52.364;6.580;2023-05-21T04:19:23;13.20;;;11.90;;
60306;SDS011;46155;52.364;6.580;2023-05-21T04:21:49;13.30;;;11.87;;
60306;SDS011;46155;52.364;6.580;2023-05-21T04:24:14;13.20;;;11.90;;
60306;SDS011;46155;52.364;6.580;2023-05-21T04:26:40;13.73;;;12.53;;
60306;SDS011;46155;52.364;6.580;2023-05-21T04:29:06;12.87;;;11.87;;
60306;SDS011;46155;52.364;6.580;2023-05-21T04:31:31;13.47;;;12.07;;
60306;SDS011;46155;52.364;6.580;2023-05-21T04:33:56;12.43;;;11.13;;
60306;SDS011;46155;52.364;6.580;2023-05-21T04:36:23;13.50;;;12.40;;
60306;SDS011;46155;52.364;6.580;2023-05-21T04:38:49;13.67;;;12.27;;
60306;SDS011;46155;52.364;6.580;2023-05-21T04:41:14;13.73;;;12.43;;
60306;SDS011;46155;52.364;6.580;2023-05-21T04:43:42;13.80;;;12.60;;
60306;SDS011;46155;52.364;6.580;2023-05-21T04:46:08;13.23;;;12.13;;
60306;SDS011;46155;52.364;6.580;2023-05-21T04:48:33;15.00;;;13.60;;
60306;SDS011;46155;52.364;6.580;2023-05-21T04:50:58;16.13;;;13.50;;
60306;SDS011;46155;52.364;6.580;2023-05-21T04:53:24;13.97;;;12.60;;
60306;SDS011;46155;52.364;6.580;2023-05-21T04:55:49;13.43;;;12.13;;
60306;SDS011;46155;52.364;6.580;2023-05-21T04:58:15;14.07;;;12.77;;
60306;SDS011;46155;52.364;6.580;2023-05-21T05:00:41;13.50;;;12.10;;
60306;SDS011;46155;52.364;6.580;2023-05-21T05:03:10;16.30;;;13.10;;
60306;SDS011;46155;52.364;6.580;2023-05-21T05:05:36;14.97;;;13.17;;
60306;SDS011;46155;52.364;6.580;2023-05-21T05:08:01;14.17;;;12.77;;
60306;SDS011;46155;52.364;6.580;2023-05-21T05:10:27;14.87;;;13.33;;
60306;SDS011;46155;52.364;6.580;2023-05-21T05:12:53;13.90;;;12.50;;
60306;SDS011;46155;52.364;6.580;2023-05-21T05:15:18;13.70;;;12.40;;
60306;SDS011;46155;52.364;6.580;2023-05-21T05:17:44;13.07;;;12.07;;
60306;SDS011;46155;52.364;6.580;2023-05-21T05:20:12;12.13;;;11.03;;
60306;SDS011;46155;52.364;6.580;2023-05-21T05:22:37;14.57;;;13.17;;
60306;SDS011;46155;52.364;6.580;2023-05-21T05:25:02;13.60;;;12.40;;
60306;SDS011;46155;52.364;6.580;2023-05-21T05:27:28;13.03;;;11.83;;
60306;SDS011;46155;52.364;6.580;2023-05-21T05:29:53;14.27;;;12.97;;
60306;SDS011;46155;52.364;6.580;2023-05-21T05:32:18;13.80;;;12.40;;
60306;SDS011;46155;52.364;6.580;2023-05-21T05:34:44;15.57;;;13.97;;
60306;SDS011;46155;52.364;6.580;2023-05-21T05:37:10;13.13;;;11.83;;
60306;SDS011;46155;52.364;6.580;2023-05-21T05:39:35;15.23;;;12.70;;
60306;SDS011;46155;52.364;6.580;2023-05-21T05:42:00;13.97;;;12.47;;
60306;SDS011;46155;52.364;6.580;2023-05-21T05:44:27;15.00;;;13.43;;
60306;SDS011;46155;52.364;6.580;2023-05-21T05:46:52;13.80;;;12.07;;
60306;SDS011;46155;52.364;6.580;2023-05-21T05:49:17;15.07;;;12.10;;
60306;SDS011;46155;52.364;6.580;2023-05-21T05:51:43;14.03;;;12.63;;
60306;SDS011;46155;52.364;6.580;2023-05-21T05:54:08;12.73;;;11.63;;
60306;SDS011;46155;52.364;6.580;2023-05-21T05:56:34;14.83;;;12.13;;
60306;SDS011;46155;52.364;6.580;2023-05-21T05:58:59;12.87;;;11.10;;
60306;SDS011;46155;52.364;6.580;2023-05-21T06:01:24;13.53;;;11.53;;
60306;SDS011;46155;52.364;6.580;2023-05-21T06:03:50;12.93;;;11.60;;
60306;SDS011;46155;52.364;6.580;2023-05-21T06:06:16;12.47;;;11.27;;
60306;SDS011;46155;52.364;6.580;2023-05-21T06:08:41;12.53;;;11.33;;
60306;SDS011;46155;52.364;6.580;2023-05-21T06:11:07;12.80;;;11.50;;
60306;SDS011;46155;52.364;6.580;2023-05-21T06:13:32;12.10;;;10.80;;
60306;SDS011;46155;52.364;6.580;2023-05-21T06:15:58;12.77;;;11.47;;
60306;SDS011;46155;52.364;6.580;2023-05-21T06:18:23;13.17;;;11.77;;
60306;SDS011;46155;52.364;6.580;2023-05-21T06:20:48;12.87;;;11.47;;
60306;SDS011;46155;52.364;6.580;2023-05-21T06:23:14;13.40;;;12.00;;
60306;SDS011;46155;52.364;6.580;2023-05-21T06:25:39;13.33;;;12.20;;
60306;SDS011;46155;52.364;6.580;2023-05-21T06:28:04;13.73;;;11.80;;
60306;SDS011;46155;52.364;6.580;2023-05-21T06:30:30;16.10;;;12.83;;
60306;SDS011;46155;52.364;6.580;2023-05-21T06:32:55;16.00;;;11.77;;
60306;SDS011;46155;52.364;6.580;2023-05-21T06:35:21;15.63;;;11.30;;
60306;SDS011;46155;52.364;6.580;2023-05-21T06:37:47;12.10;;;10.93;;
60306;SDS011;46155;52.364;6.580;2023-05-21T06:40:12;14.60;;;12.57;;
60306;SDS011;46155;52.364;6.580;2023-05-21T06:42:38;12.77;;;11.47;;
60306;SDS011;46155;52.364;6.580;2023-05-21T06:45:03;13.00;;;11.70;;
60306;SDS011;46155;52.364;6.580;2023-05-21T06:47:29;13.00;;;11.80;;
60306;SDS011;46155;52.364;6.580;2023-05-21T06:49:55;13.10;;;11.87;;
60306;SDS011;46155;52.364;6.580;2023-05-21T06:52:20;12.67;;;11.27;;
60306;SDS011;46155;52.364;6.580;2023-05-21T06:54:45;16.23;;;12.23;;
60306;SDS011;46155;52.364;6.580;2023-05-21T06:57:12;17.03;;;11.90;;
60306;SDS011;46155;52.364;6.580;2023-05-21T06:59:39;12.70;;;11.40;;
60306;SDS011;46155;52.364;6.580;2023-05-21T07:02:04;13.47;;;12.17;;
60306;SDS011;46155;52.364;6.580;2023-05-21T07:04:30;14.47;;;10.90;;
60306;SDS011;46155;52.364;6.580;2023-05-21T07:06:56;13.17;;;11.00;;
60306;SDS011;46155;52.364;6.580;2023-05-21T07:09:21;16.47;;;10.90;;
60306;SDS011;46155;52.364;6.580;2023-05-21T07:11:48;15.00;;;11.13;;
60306;SDS011;46155;52.364;6.580;2023-05-21T07:14:13;12.60;;;11.10;;
60306;SDS011;46155;52.364;6.580;2023-05-21T07:16:38;14.90;;;12.07;;
60306;SDS011;46155;52.364;6.580;2023-05-21T07:19:03;12.67;;;11.10;;
60306;SDS011;46155;52.364;6.580;2023-05-21T07:21:29;21.27;;;11.90;;
60306;SDS011;46155;52.364;6.580;2023-05-21T07:23:54;15.57;;;11.33;;
60306;SDS011;46155;52.364;6.580;2023-05-21T07:26:20;13.10;;;11.63;;
60306;SDS011;46155;52.364;6.580;2023-05-21T07:28:46;13.37;;;11.63;;
60306;SDS011;46155;52.364;6.580;2023-05-21T07:31:11;12.10;;;10.97;;
60306;SDS011;46155;52.364;6.580;2023-05-21T07:33:37;12.00;;;10.47;;
60306;SDS011;46155;52.364;6.580;2023-05-21T07:36:02;17.00;;;11.53;;
60306;SDS011;46155;52.364;6.580;2023-05-21T07:38:28;15.03;;;11.17;;
60306;SDS011;46155;52.364;6.580;2023-05-21T07:40:54;12.87;;;11.53;;
60306;SDS011;46155;52.364;6.580;2023-05-21T07:43:20;14.13;;;11.20;;
60306;SDS011;46155;52.364;6.580;2023-05-21T07:45:46;14.03;;;11.23;;
60306;SDS011;46155;52.364;6.580;2023-05-21T07:48:11;11.53;;;10.37;;
60306;SDS011;46155;52.364;6.580;2023-05-21T07:50:36;13.63;;;11.40;;
60306;SDS011;46155;52.364;6.580;2023-05-21T07:53:02;13.00;;;11.70;;
60306;SDS011;46155;52.364;6.580;2023-05-21T07:55:27;12.90;;;11.30;;
60306;SDS011;46155;52.364;6.580;2023-05-21T07:57:52;13.23;;;11.27;;
60306;SDS011;46155;52.364;6.580;2023-05-21T08:00:18;14.00;;;11.13;;
60306;SDS011;46155;52.364;6.580;2023-05-21T08:02:44;12.43;;;10.13;;
60306;SDS011;46155;52.364;6.580;2023-05-21T08:05:10;18.50;;;11.27;;
60306;SDS011;46155;52.364;6.580;2023-05-21T08:07:35;11.33;;;10.17;;
60306;SDS011;46155;52.364;6.580;2023-05-21T08:10:01;13.10;;;10.97;;
60306;SDS011;46155;52.364;6.580;2023-05-21T08:12:27;13.03;;;11.77;;
60306;SDS011;46155;52.364;6.580;2023-05-21T08:14:52;13.93;;;12.63;;
60306;SDS011;46155;52.364;6.580;2023-05-21T08:17:17;22.00;;;12.73;;
60306;SDS011;46155;52.364;6.580;2023-05-21T08:19:43;12.73;;;11.53;;
60306;SDS011;46155;52.364;6.580;2023-05-21T08:22:08;12.67;;;11.53;;
60306;SDS011;46155;52.364;6.580;2023-05-21T08:24:34;16.43;;;11.50;;
60306;SDS011;46155;52.364;6.580;2023-05-21T08:26:59;13.87;;;10.87;;
60306;SDS011;46155;52.364;6.580;2023-05-21T08:29:25;12.30;;;11.10;;
60306;SDS011;46155;52.364;6.580;2023-05-21T08:31:50;15.23;;;12.50;;
60306;SDS011;46155;52.364;6.580;2023-05-21T08:34:15;13.97;;;11.70;;
60306;SDS011;46155;52.364;6.580;2023-05-21T08:36:42;16.20;;;11.20;;
60306;SDS011;46155;52.364;6.580;2023-05-21T08:39:10;13.53;;;11.23;;
60306;SDS011;46155;52.364;6.580;2023-05-21T08:41:36;14.30;;;11.37;;
60306;SDS011;46155;52.364;6.580;2023-05-21T08:44:03;14.07;;;12.63;;
60306;SDS011;46155;52.364;6.580;2023-05-21T08:46:35;14.87;;;12.40;;
60306;SDS011;46155;52.364;6.580;2023-05-21T08:49:05;15.37;;;11.30;;
60306;SDS011;46155;52.364;6.580;2023-05-21T08:51:36;18.20;;;12.47;;
60306;SDS011;46155;52.364;6.580;2023-05-21T08:54:02;18.77;;;11.20;;
60306;SDS011;46155;52.364;6.580;2023-05-21T08:56:30;13.37;;;11.97;;
60306;SDS011;46155;52.364;6.580;2023-05-21T08:58:55;17.13;;;11.87;;
60306;SDS011;46155;52.364;6.580;2023-05-21T09:01:22;15.07;;;11.77;;
60306;SDS011;46155;52.364;6.580;2023-05-21T09:03:50;16.97;;;11.70;;
60306;SDS011;46155;52.364;6.580;2023-05-21T09:06:16;15.73;;;12.70;;
60306;SDS011;46155;52.364;6.580;2023-05-21T09:08:43;15.53;;;11.90;;
60306;SDS011;46155;52.364;6.580;2023-05-21T09:11:12;22.77;;;12.90;;
60306;SDS011;46155;52.364;6.580;2023-05-21T09:13:38;13.47;;;12.10;;
60306;SDS011;46155;52.364;6.580;2023-05-21T09:16:04;17.47;;;12.20;;
60306;SDS011;46155;52.364;6.580;2023-05-21T09:18:30;17.13;;;12.53;;
60306;SDS011;46155;52.364;6.580;2023-05-21T09:20:56;15.57;;;12.20;;
60306;SDS011;46155;52.364;6.580;2023-05-21T09:23:21;16.90;;;12.30;;
60306;SDS011;46155;52.364;6.580;2023-05-21T09:25:47;17.50;;;12.37;;
60306;SDS011;46155;52.364;6.580;2023-05-21T09:28:13;16.23;;;13.30;;
60306;SDS011;46155;52.364;6.580;2023-05-21T09:30:46;15.00;;;13.40;;
60306;SDS011;46155;52.364;6.580;2023-05-21T09:33:26;15.80;;;12.87;;
60306;SDS011;46155;52.364;6.580;2023-05-21T09:35:55;13.93;;;12.27;;
60306;SDS011;46155;52.364;6.580;2023-05-21T09:38:21;14.87;;;11.93;;
60306;SDS011;46155;52.364;6.580;2023-05-21T09:40:51;15.87;;;11.73;;
60306;SDS011;46155;52.364;6.580;2023-05-21T09:43:20;19.57;;;11.97;;
60306;SDS011;46155;52.364;6.580;2023-05-21T09:45:49;15.27;;;12.33;;
60306;SDS011;46155;52.364;6.580;2023-05-21T09:48:15;17.43;;;12.33;;
60306;SDS011;46155;52.364;6.580;2023-05-21T09:50:41;16.07;;;13.10;;
60306;SDS011;46155;52.364;6.580;2023-05-21T09:53:10;17.87;;;12.80;;
60306;SDS011;46155;52.364;6.580;2023-05-21T09:55:38;18.47;;;13.50;;
60306;SDS011;46155;52.364;6.580;2023-05-21T09:58:03;19.65;;;15.68;;
60306;SDS011;46155;52.364;6.580;2023-05-21T10:00:29;16.57;;;13.77;;
60306;SDS011;46155;52.364;6.580;2023-05-21T10:02:56;18.80;;;12.67;;
60306;SDS011;46155;52.364;6.580;2023-05-21T10:05:25;18.97;;;12.70;;
60306;SDS011;46155;52.364;6.580;2023-05-21T10:08:00;18.60;;;12.83;;
60306;SDS011;46155;52.364;6.580;2023-05-21T10:10:27;19.20;;;13.10;;
60306;SDS011;46155;52.364;6.580;2023-05-21T10:12:54;23.00;;;14.17;;
60306;SDS011;46155;52.364;6.580;2023-05-21T10:15:23;18.00;;;14.50;;
60306;SDS011;46155;52.364;6.580;2023-05-21T10:17:54;16.13;;;13.33;;
60306;SDS011;46155;52.364;6.580;2023-05-21T10:20:21;17.67;;;14.57;;
60306;SDS011;46155;52.364;6.580;2023-05-21T10:22:46;19.73;;;13.43;;
60306;SDS011;46155;52.364;6.580;2023-05-21T10:25:14;15.90;;;13.97;;
60306;SDS011;46155;52.364;6.580;2023-05-21T10:27:40;19.33;;;13.47;;
60306;SDS011;46155;52.364;6.580;2023-05-21T10:30:06;23.40;;;15.17;;
60306;SDS011;46155;52.364;6.580;2023-05-21T10:32:35;18.63;;;15.77;;
60306;SDS011;46155;52.364;6.580;2023-05-21T10:35:04;19.13;;;14.37;;
60306;SDS011;46155;52.364;6.580;2023-05-21T10:37:31;24.37;;;16.10;;
60306;SDS011;46155;52.364;6.580;2023-05-21T10:39:56;20.50;;;14.33;;
60306;SDS011;46155;52.364;6.580;2023-05-21T11:01:25;22.17;;;17.58;;
60306;SDS011;46155;52.364;6.580;2023-05-21T11:03:57;19.60;;;16.30;;
60306;SDS011;46155;52.364;6.580;2023-05-21T11:06:26;23.40;;;16.13;;
60306;SDS011;46155;52.364;6.580;2023-05-21T11:08:52;22.37;;;16.43;;
60306;SDS011;46155;52.364;6.580;2023-05-21T11:14:27;22.10;;;15.70;;
60306;SDS011;46155;52.364;6.580;2023-05-21T11:17:11;21.97;;;16.53;;
60306;SDS011;46155;52.364;6.580;2023-05-21T11:19:43;20.90;;;15.23;;
60306;SDS011;46155;52.364;6.580;2023-05-21T11:24:48;23.17;;;16.70;;
60306;SDS011;46155;52.364;6.580;2023-05-21T11:30:13;25.13;;;16.80;;
60306;SDS011;46155;52.364;6.580;2023-05-21T11:33:16;20.50;;;15.80;;
60306;SDS011;46155;52.364;6.580;2023-05-21T11:35:35;19.50;;;15.80;;
60306;SDS011;46155;52.364;6.580;2023-05-21T11:38:03;25.80;;;15.90;;
60306;SDS011;46155;52.364;6.580;2023-05-21T11:40:28;22.47;;;16.10;;
60306;SDS011;46155;52.364;6.580;2023-05-21T11:42:55;24.47;;;16.30;;
60306;SDS011;46155;52.364;6.580;2023-05-21T11:45:21;24.67;;;16.23;;
60306;SDS011;46155;52.364;6.580;2023-05-21T11:47:49;19.27;;;15.50;;
60306;SDS011;46155;52.364;6.580;2023-05-21T11:50:16;22.13;;;16.77;;
60306;SDS011;46155;52.364;6.580;2023-05-21T11:52:42;22.13;;;16.50;;
60306;SDS011;46155;52.364;6.580;2023-05-21T11:55:08;26.87;;;17.73;;
60306;SDS011;46155;52.364;6.580;2023-05-21T11:57:35;22.93;;;15.60;;
60306;SDS011;46155;52.364;6.580;2023-05-21T12:00:01;20.70;;;15.10;;
60306;SDS011;46155;52.364;6.580;2023-05-21T12:02:37;23.03;;;17.00;;
60306;SDS011;46155;52.364;6.580;2023-05-21T12:05:02;21.97;;;16.47;;
60306;SDS011;46155;52.364;6.580;2023-05-21T12:07:28;22.03;;;16.33;;
60306;SDS011;46155;52.364;6.580;2023-05-21T12:09:54;23.13;;;16.40;;
60306;SDS011;46155;52.364;6.580;2023-05-21T12:12:20;21.10;;;16.10;;
60306;SDS011;46155;52.364;6.580;2023-05-21T12:14:50;22.97;;;16.97;;
60306;SDS011;46155;52.364;6.580;2023-05-21T12:17:23;24.43;;;16.20;;
60306;SDS011;46155;52.364;6.580;2023-05-21T12:19:53;22.73;;;16.30;;
60306;SDS011;46155;52.364;6.580;2023-05-21T12:22:19;20.97;;;14.87;;
60306;SDS011;46155;52.364;6.580;2023-05-21T12:24:45;24.67;;;15.63;;
60306;SDS011;46155;52.364;6.580;2023-05-21T12:27:12;22.50;;;16.63;;
60306;SDS011;46155;52.364;6.580;2023-05-21T12:29:41;24.80;;;16.27;;
60306;SDS011;46155;52.364;6.580;2023-05-21T12:32:09;24.50;;;16.90;;
60306;SDS011;46155;52.364;6.580;2023-05-21T12:34:37;18.50;;;15.67;;
60306;SDS011;46155;52.364;6.580;2023-05-21T12:37:16;21.83;;;16.23;;
60306;SDS011;46155;52.364;6.580;2023-05-21T12:39:46;25.20;;;16.70;;
60306;SDS011;46155;52.364;6.580;2023-05-21T12:42:13;21.20;;;16.37;;
60306;SDS011;46155;52.364;6.580;2023-05-21T12:44:42;21.80;;;17.17;;
60306;SDS011;46155;52.364;6.580;2023-05-21T12:47:10;22.73;;;16.03;;
60306;SDS011;46155;52.364;6.580;2023-05-21T12:49:37;21.87;;;16.53;;
60306;SDS011;46155;52.364;6.580;2023-05-21T12:52:07;20.63;;;16.83;;
60306;SDS011;46155;52.364;6.580;2023-05-21T12:54:34;21.73;;;16.23;;
60306;SDS011;46155;52.364;6.580;2023-05-21T12:57:07;24.77;;;16.50;;
60306;SDS011;46155;52.364;6.580;2023-05-21T13:00:00;20.70;;;16.70;;
60306;SDS011;46155;52.364;6.580;2023-05-21T13:04:54;23.80;;;17.50;;
60306;SDS011;46155;52.364;6.580;2023-05-21T13:07:21;23.57;;;15.30;;
60306;SDS011;46155;52.364;6.580;2023-05-21T13:09:47;20.10;;;15.40;;
60306;SDS011;46155;52.364;6.580;2023-05-21T13:12:12;22.93;;;15.57;;
60306;SDS011;46155;52.364;6.580;2023-05-21T13:14:38;21.80;;;15.93;;
60306;SDS011;46155;52.364;6.580;2023-05-21T13:17:03;20.50;;;15.50;;
60306;SDS011;46155;52.364;6.580;2023-05-21T13:19:29;18.57;;;16.10;;
60306;SDS011;46155;52.364;6.580;2023-05-21T13:21:55;23.20;;;17.27;;
60306;SDS011;46155;52.364;6.580;2023-05-21T13:24:20;25.30;;;16.50;;
60306;SDS011;46155;52.364;6.580;2023-05-21T13:26:45;24.03;;;15.43;;
60306;SDS011;46155;52.364;6.580;2023-05-21T13:29:11;24.83;;;17.53;;
60306;SDS011;46155;52.364;6.580;2023-05-21T13:31:39;20.50;;;15.73;;
60306;SDS011;46155;52.364;6.580;2023-05-21T13:34:05;21.33;;;16.00;;
60306;SDS011;46155;52.364;6.580;2023-05-21T13:36:31;21.67;;;16.73;;
60306;SDS011;46155;52.364;6.580;2023-05-21T13:38:57;21.37;;;15.13;;
60306;SDS011;46155;52.364;6.580;2023-05-21T13:41:22;23.57;;;16.40;;
60306;SDS011;46155;52.364;6.580;2023-05-21T13:43:47;20.60;;;16.37;;
60306;SDS011;46155;52.364;6.580;2023-05-21T13:46:13;21.47;;;15.23;;
60306;SDS011;46155;52.364;6.580;2023-05-21T13:48:38;18.80;;;14.90;;
60306;SDS011;46155;52.364;6.580;2023-05-21T13:51:04;17.47;;;15.53;;
60306;SDS011;46155;52.364;6.580;2023-05-21T13:53:29;19.83;;;16.43;;
60306;SDS011;46155;52.364;6.580;2023-05-21T13:55:55;18.73;;;15.53;;
60306;SDS011;46155;52.364;6.580;2023-05-21T13:58:20;22.00;;;15.67;;
60306;SDS011;46155;52.364;6.580;2023-05-21T14:00:45;23.83;;;18.03;;
60306;SDS011;46155;52.364;6.580;2023-05-21T14:03:10;22.80;;;16.93;;
60306;SDS011;46155;52.364;6.580;2023-05-21T14:05:36;20.17;;;16.83;;
60306;SDS011;46155;52.364;6.580;2023-05-21T14:08:02;21.10;;;16.53;;
60306;SDS011;46155;52.364;6.580;2023-05-21T14:10:28;24.97;;;16.20;;
60306;SDS011;46155;52.364;6.580;2023-05-21T14:12:53;26.77;;;16.63;;
60306;SDS011;46155;52.364;6.580;2023-05-21T14:15:18;20.23;;;16.80;;
60306;SDS011;46155;52.364;6.580;2023-05-21T14:17:45;24.13;;;17.93;;
60306;SDS011;46155;52.364;6.580;2023-05-21T14:20:10;19.13;;;16.23;;
60306;SDS011;46155;52.364;6.580;2023-05-21T14:22:36;26.00;;;17.00;;
60306;SDS011;46155;52.364;6.580;2023-05-21T14:25:02;24.50;;;16.13;;
60306;SDS011;46155;52.364;6.580;2023-05-21T14:27:27;20.57;;;16.17;;
60306;SDS011;46155;52.364;6.580;2023-05-21T14:29:52;18.03;;;15.00;;
60306;SDS011;46155;52.364;6.580;2023-05-21T14:32:18;20.27;;;16.20;;
60306;SDS011;46155;52.364;6.580;2023-05-21T14:34:43;24.50;;;16.73;;
60306;SDS011;46155;52.364;6.580;2023-05-21T14:37:08;23.63;;;16.87;;
60306;SDS011;46155;52.364;6.580;2023-05-21T14:39:33;20.57;;;15.83;;
60306;SDS011;46155;52.364;6.580;2023-05-21T14:42:01;20.43;;;16.20;;
60306;SDS011;46155;52.364;6.580;2023-05-21T14:44:27;27.73;;;16.97;;
60306;SDS011;46155;52.364;6.580;2023-05-21T14:46:53;23.27;;;17.30;;
60306;SDS011;46155;52.364;6.580;2023-05-21T14:49:18;32.27;;;16.67;;
60306;SDS011;46155;52.364;6.580;2023-05-21T14:51:43;21.10;;;16.60;;
60306;SDS011;46155;52.364;6.580;2023-05-21T14:54:11;20.13;;;16.57;;
60306;SDS011;46155;52.364;6.580;2023-05-21T14:56:36;26.60;;;16.10;;
60306;SDS011;46155;52.364;6.580;2023-05-21T14:59:02;18.47;;;15.43;;
60306;SDS011;46155;52.364;6.580;2023-05-21T15:01:27;18.97;;;16.20;;
60306;SDS011;46155;52.364;6.580;2023-05-21T15:03:52;19.10;;;15.63;;
60306;SDS011;46155;52.364;6.580;2023-05-21T15:06:19;20.57;;;15.60;;
60306;SDS011;46155;52.364;6.580;2023-05-21T15:08:45;18.60;;;16.03;;
60306;SDS011;46155;52.364;6.580;2023-05-21T15:11:10;19.40;;;16.80;;
60306;SDS011;46155;52.364;6.580;2023-05-21T15:13:36;20.83;;;15.40;;
60306;SDS011;46155;52.364;6.580;2023-05-21T15:16:02;17.77;;;15.23;;
60306;SDS011;46155;52.364;6.580;2023-05-21T15:18:28;23.30;;;16.47;;
60306;SDS011;46155;52.364;6.580;2023-05-21T15:20:53;18.53;;;15.33;;
60306;SDS011;46155;52.364;6.580;2023-05-21T15:23:18;24.43;;;16.33;;
60306;SDS011;46155;52.364;6.580;2023-05-21T15:25:44;21.57;;;16.63;;
60306;SDS011;46155;52.364;6.580;2023-05-21T15:28:09;20.93;;;16.13;;
60306;SDS011;46155;52.364;6.580;2023-05-21T15:30:35;21.17;;;16.43;;
60306;SDS011;46155;52.364;6.580;2023-05-21T15:33:01;21.73;;;16.30;;
60306;SDS011;46155;52.364;6.580;2023-05-21T15:35:26;18.70;;;16.37;;
60306;SDS011;46155;52.364;6.580;2023-05-21T15:37:51;24.03;;;16.27;;
60306;SDS011;46155;52.364;6.580;2023-05-21T15:40:17;17.40;;;15.17;;
60306;SDS011;46155;52.364;6.580;2023-05-21T15:42:42;27.50;;;15.63;;
60306;SDS011;46155;52.364;6.580;2023-05-21T15:45:07;18.47;;;15.70;;
60306;SDS011;46155;52.364;6.580;2023-05-21T15:47:33;20.73;;;15.83;;
60306;SDS011;46155;52.364;6.580;2023-05-21T15:49:58;24.13;;;16.77;;
60306;SDS011;46155;52.364;6.580;2023-05-21T15:52:24;19.10;;;15.47;;
60306;SDS011;46155;52.364;6.580;2023-05-21T15:54:49;19.70;;;14.73;;
60306;SDS011;46155;52.364;6.580;2023-05-21T15:57:15;24.77;;;16.13;;
60306;SDS011;46155;52.364;6.580;2023-05-21T15:59:40;15.33;;;13.57;;
60306;SDS011;46155;52.364;6.580;2023-05-21T16:02:06;23.07;;;15.47;;
60306;SDS011;46155;52.364;6.580;2023-05-21T16:04:32;17.03;;;15.30;;
60306;SDS011;46155;52.364;6.580;2023-05-21T16:06:57;18.13;;;14.63;;
60306;SDS011;46155;52.364;6.580;2023-05-21T16:09:23;22.80;;;14.23;;
60306;SDS011;46155;52.364;6.580;2023-05-21T16:11:48;18.17;;;15.63;;
60306;SDS011;46155;52.364;6.580;2023-05-21T16:14:13;18.70;;;15.57;;
60306;SDS011;46155;52.364;6.580;2023-05-21T16:16:39;23.50;;;15.50;;
60306;SDS011;46155;52.364;6.580;2023-05-21T16:19:04;20.10;;;15.23;;
60306;SDS011;46155;52.364;6.580;2023-05-21T16:21:29;18.40;;;15.47;;
60306;SDS011;46155;52.364;6.580;2023-05-21T16:23:55;19.37;;;15.10;;
60306;SDS011;46155;52.364;6.580;2023-05-21T16:26:21;20.57;;;14.60;;
60306;SDS011;46155;52.364;6.580;2023-05-21T16:28:46;18.50;;;14.47;;
60306;SDS011;46155;52.364;6.580;2023-05-21T16:31:12;18.90;;;14.00;;
60306;SDS011;46155;52.364;6.580;2023-05-21T16:33:37;17.03;;;14.17;;
60306;SDS011;46155;52.364;6.580;2023-05-21T16:36:03;21.07;;;14.63;;
60306;SDS011;46155;52.364;6.580;2023-05-21T16:38:28;21.27;;;14.33;;
60306;SDS011;46155;52.364;6.580;2023-05-21T16:40:55;18.20;;;15.57;;
60306;SDS011;46155;52.364;6.580;2023-05-21T16:43:20;19.00;;;14.37;;
60306;SDS011;46155;52.364;6.580;2023-05-21T16:45:46;16.43;;;14.30;;
60306;SDS011;46155;52.364;6.580;2023-05-21T16:48:12;19.57;;;15.43;;
60306;SDS011;46155;52.364;6.580;2023-05-21T16:50:39;17.93;;;14.37;;
60306;SDS011;46155;52.364;6.580;2023-05-21T16:53:04;16.13;;;14.33;;
60306;SDS011;46155;52.364;6.580;2023-05-21T16:55:31;17.87;;;14.83;;
60306;SDS011;46155;52.364;6.580;2023-05-21T16:57:59;18.57;;;13.87;;
60306;SDS011;46155;52.364;6.580;2023-05-21T17:00:25;18.43;;;13.80;;
60306;SDS011;46155;52.364;6.580;2023-05-21T17:02:51;20.90;;;15.73;;
60306;SDS011;46155;52.364;6.580;2023-05-21T17:05:17;23.10;;;15.40;;
60306;SDS011;46155;52.364;6.580;2023-05-21T17:07:42;18.20;;;14.97;;
60306;SDS011;46155;52.364;6.580;2023-05-21T17:10:08;18.57;;;15.00;;
60306;SDS011;46155;52.364;6.580;2023-05-21T17:12:33;20.60;;;14.67;;
60306;SDS011;46155;52.364;6.580;2023-05-21T17:14:59;20.00;;;15.30;;
60306;SDS011;46155;52.364;6.580;2023-05-21T17:17:24;17.40;;;15.47;;
60306;SDS011;46155;52.364;6.580;2023-05-21T17:19:49;23.97;;;15.37;;
60306;SDS011;46155;52.364;6.580;2023-05-21T17:22:15;22.77;;;16.07;;
60306;SDS011;46155;52.364;6.580;2023-05-21T17:24:40;20.20;;;15.23;;
60306;SDS011;46155;52.364;6.580;2023-05-21T17:27:05;21.23;;;16.00;;
60306;SDS011;46155;52.364;6.580;2023-05-21T17:29:31;18.23;;;15.47;;
60306;SDS011;46155;52.364;6.580;2023-05-21T17:31:56;19.27;;;16.23;;
60306;SDS011;46155;52.364;6.580;2023-05-21T17:34:22;20.20;;;15.70;;
60306;SDS011;46155;52.364;6.580;2023-05-21T17:36:50;18.07;;;14.10;;
60306;SDS011;46155;52.364;6.580;2023-05-21T17:39:18;21.03;;;15.93;;
60306;SDS011;46155;52.364;6.580;2023-05-21T17:41:43;20.00;;;15.30;;
60306;SDS011;46155;52.364;6.580;2023-05-21T17:44:11;18.60;;;14.97;;
60306;SDS011;46155;52.364;6.580;2023-05-21T17:46:37;16.80;;;15.00;;